createdAt,value
2023-04-21T00:00:33.849Z,7.85
2023-04-21T00:03:03.669Z,7.88
2023-04-21T00:05:33.481Z,7.90
2023-04-21T00:08:01.878Z,7.89
2023-04-21T00:10:30.543Z,7.84
2023-04-21T00:12:59.123Z,7.75
2023-04-21T00:15:27.358Z,7.71
2023-04-21T00:17:56.225Z,7.69
2023-04-21T00:20:27.076Z,7.66
2023-04-21T00:22:58.885Z,7.59
2023-04-21T00:25:27.393Z,7.47
2023-04-21T00:27:56.195Z,7.38
2023-04-21T00:30:24.741Z,7.33
2023-04-21T00:32:53.207Z,7.26
2023-04-21T00:35:21.596Z,7.21
2023-04-21T00:37:50.468Z,7.18
2023-04-21T00:40:18.877Z,7.18
2023-04-21T00:42:47.143Z,7.19
2023-04-21T00:45:15.834Z,7.21
2023-04-21T00:47:44.193Z,7.22
2023-04-21T00:50:13.050Z,7.20
2023-04-21T00:52:42.430Z,7.17
2023-04-21T00:55:10.866Z,7.13
2023-04-21T00:57:39.208Z,7.08
2023-04-21T01:00:09.112Z,7.05
2023-04-21T01:02:40.064Z,7.03
2023-04-21T01:05:12.255Z,7.00
2023-04-21T01:07:43.408Z,7.00
2023-04-21T01:10:12.003Z,7.00
2023-04-21T01:12:45.413Z,6.98
2023-04-21T01:15:16.435Z,6.98
2023-04-21T01:17:45.697Z,7.00
2023-04-21T01:20:16.168Z,7.01
2023-04-21T01:22:48.031Z,7.00
2023-04-21T01:25:17.821Z,6.99
2023-04-21T01:27:46.409Z,7.00
2023-04-21T01:30:14.785Z,6.99
2023-04-21T01:32:43.247Z,6.95
2023-04-21T01:35:11.580Z,6.92
2023-04-21T01:37:40.548Z,6.88
2023-04-21T01:40:09.495Z,6.85
2023-04-21T01:42:40.401Z,6.83
2023-04-21T01:45:09.880Z,6.82
2023-04-21T01:47:39.241Z,6.80
2023-04-21T01:50:08.882Z,6.74
2023-04-21T01:52:37.991Z,6.67
2023-04-21T01:55:07.505Z,6.62
2023-04-21T01:57:36.470Z,6.58
2023-04-21T02:00:06.212Z,6.55
2023-04-21T02:02:45.075Z,6.52
2023-04-21T02:05:17.989Z,6.49
2023-04-21T02:07:46.777Z,6.49
2023-04-21T02:10:16.412Z,6.51
2023-04-21T02:12:45.994Z,6.54
2023-04-21T02:15:14.326Z,6.56
2023-04-21T02:17:45.098Z,6.56
2023-04-21T02:20:13.664Z,6.54
2023-04-21T02:22:42.022Z,6.48
2023-04-21T02:25:10.347Z,6.41
2023-04-21T02:27:40.572Z,6.38
2023-04-21T02:30:09.656Z,6.35
2023-04-21T02:32:38.724Z,6.32
2023-04-21T02:35:07.651Z,6.29
2023-04-21T02:37:36.639Z,6.24
2023-04-21T02:40:06.704Z,6.20
2023-04-21T02:42:35.661Z,6.17
2023-04-21T02:45:04.322Z,6.15
2023-04-21T02:47:33.175Z,6.15
2023-04-21T02:50:01.490Z,6.12
2023-04-21T02:52:29.976Z,6.10
2023-04-21T02:54:58.258Z,6.08
2023-04-21T02:57:27.140Z,6.07
2023-04-21T02:59:55.571Z,6.03
2023-04-21T03:02:24.435Z,5.97
2023-04-21T03:04:53.499Z,5.91
2023-04-21T03:07:21.880Z,5.86
2023-04-21T03:09:50.238Z,5.80
2023-04-21T03:12:18.873Z,5.74
2023-04-21T03:14:47.838Z,5.71
2023-04-21T03:17:16.213Z,5.68
2023-04-21T03:19:44.488Z,5.65
2023-04-21T03:22:13.167Z,5.62
2023-04-21T03:24:41.454Z,5.60
2023-04-21T03:27:11.014Z,5.61
2023-04-21T03:29:39.799Z,5.63
2023-04-21T03:32:08.218Z,5.62
2023-04-21T03:34:36.990Z,5.59
2023-04-21T03:37:06.444Z,5.56
2023-04-21T03:39:34.989Z,5.54
2023-04-21T03:42:05.176Z,5.50
2023-04-21T03:44:33.355Z,5.47
2023-04-21T03:47:05.979Z,5.43
2023-04-21T03:49:35.193Z,5.38
2023-04-21T03:52:03.852Z,5.34
2023-04-21T03:54:32.517Z,5.31
2023-04-21T03:57:00.923Z,5.33
2023-04-21T03:59:29.505Z,5.37
2023-04-21T04:01:57.844Z,5.42
2023-04-21T04:04:26.911Z,5.47
2023-04-21T04:06:55.599Z,5.49
2023-04-21T04:09:27.533Z,5.54
2023-04-21T04:11:56.158Z,5.61
2023-04-21T04:14:24.371Z,5.60
